createdAt,value
2023-01-13T00:01:09.559Z,2.92
2023-01-13T00:03:37.184Z,2.03
2023-01-13T00:06:04.306Z,1.83
2023-01-13T00:08:31.556Z,1.35
2023-01-13T00:10:58.280Z,1.67
2023-01-13T00:13:27.855Z,1.70
2023-01-13T00:15:59.337Z,1.30
2023-01-13T00:18:26.217Z,2.55
2023-01-13T00:21:06.576Z,1.60
2023-01-13T00:23:34.812Z,2.70
2023-01-13T00:26:05.811Z,2.30
2023-01-13T00:28:33.023Z,1.95
2023-01-13T00:31:29.433Z,2.92
2023-01-13T00:33:57.650Z,2.20
2023-01-13T00:36:24.226Z,1.95
2023-01-13T00:38:50.974Z,2.35
2023-01-13T00:41:20.006Z,2.83
2023-01-13T00:43:47.426Z,2.55
2023-01-13T00:46:17.218Z,1.52
2023-01-13T00:48:44.520Z,2.10
2023-01-13T00:51:17.202Z,1.48
2023-01-13T00:53:46.167Z,1.58
2023-01-13T00:56:22.123Z,4.22
2023-01-13T00:58:58.752Z,1.90
2023-01-13T01:01:26.063Z,1.50
2023-01-13T01:03:54.428Z,1.48
2023-01-13T01:06:26.304Z,1.75
2023-01-13T01:08:54.000Z,2.95
2023-01-13T01:11:23.433Z,1.55
2023-01-13T01:13:52.446Z,2.40
2023-01-13T01:16:21.392Z,2.22
2023-01-13T01:18:49.910Z,2.03
2023-01-13T01:21:18.032Z,1.67
2023-01-13T01:23:45.370Z,1.98
2023-01-13T01:26:14.875Z,3.05
2023-01-13T01:28:41.724Z,2.03
2023-01-13T01:31:13.925Z,1.83
2023-01-13T01:33:41.149Z,2.53
2023-01-13T01:36:08.898Z,3.90
2023-01-13T01:38:35.559Z,2.10
2023-01-13T01:41:02.326Z,1.92
2023-01-13T01:43:59.948Z,3.15
2023-01-13T01:46:31.121Z,2.10
2023-01-13T01:49:06.374Z,3.35
2023-01-13T01:51:37.313Z,1.98
2023-01-13T01:54:07.689Z,2.40
2023-01-13T01:56:35.124Z,2.35
2023-01-13T01:59:02.007Z,1.58
2023-01-13T02:01:28.992Z,2.03
2023-01-13T02:04:05.213Z,2.65
2023-01-13T02:06:32.086Z,3.38
2023-01-13T02:09:00.839Z,1.10
2023-01-13T02:11:55.852Z,1.25
2023-01-13T02:14:24.937Z,1.00
2023-01-13T02:17:24.607Z,1.17
2023-01-13T02:20:10.089Z,1.13
2023-01-13T02:23:37.139Z,1.45
2023-01-13T02:26:38.126Z,0.73
2023-01-13T02:29:35.267Z,1.70
2023-01-13T02:32:12.794Z,0.90
2023-01-13T02:34:46.204Z,1.50
2023-01-13T02:37:29.920Z,0.98
2023-01-13T02:40:28.781Z,1.80
2023-01-13T02:43:26.694Z,1.90
2023-01-13T02:46:03.536Z,0.90
2023-01-13T02:48:31.776Z,0.63
2023-01-13T02:51:07.952Z,1.58
2023-01-13T02:53:40.877Z,1.65
2023-01-13T02:56:08.755Z,0.75
2023-01-13T02:58:37.952Z,0.65
2023-01-13T03:01:04.963Z,1.60
2023-01-13T03:03:32.767Z,4.30
2023-01-13T03:06:06.453Z,2.55
2023-01-13T03:08:49.277Z,2.92
2023-01-13T03:11:18.990Z,2.92
2023-01-13T03:13:58.708Z,1.30
2023-01-13T03:16:34.730Z,1.60
2023-01-13T03:19:17.156Z,0.98
2023-01-13T03:21:59.350Z,4.68
2023-01-13T03:24:37.338Z,1.80
2023-01-13T03:30:05.232Z,1.80
2023-01-13T03:32:45.477Z,1.45
2023-01-13T03:35:21.161Z,0.93
2023-01-13T03:37:55.443Z,3.35
2023-01-13T03:40:28.632Z,5.07
2023-01-13T03:43:19.051Z,4.00
2023-01-13T03:48:19.144Z,5.32
2023-01-13T03:50:54.988Z,5.30
2023-01-13T03:53:32.578Z,10.02
2023-01-13T03:56:06.431Z,5.43
2023-01-13T03:58:37.938Z,5.43
2023-01-13T04:01:17.186Z,5.07
2023-01-13T04:03:55.517Z,4.90
2023-01-13T04:06:31.961Z,4.82
2023-01-13T04:09:58.118Z,5.90
2023-01-13T04:12:51.562Z,4.93
2023-01-13T04:15:22.371Z,6.72
2023-01-13T04:17:51.370Z,4.63
2023-01-13T04:20:18.255Z,5.43
2023-01-13T04:22:44.980Z,9.25
2023-01-13T04:25:12.433Z,5.63
2023-01-13T04:27:39.425Z,9.05
2023-01-13T04:30:06.997Z,7.22
2023-01-13T04:32:33.877Z,7.32
2023-01-13T04:35:00.586Z,8.18
2023-01-13T04:37:27.270Z,7.88
2023-01-13T04:39:54.047Z,4.32
2023-01-13T04:42:21.209Z,10.18
2023-01-13T04:44:48.399Z,11.98
2023-01-13T04:47:15.247Z,9.40
2023-01-13T04:49:41.953Z,7.10
2023-01-13T04:52:08.972Z,6.53
2023-01-13T04:54:35.645Z,12.95
2023-01-13T04:57:02.659Z,11.13
2023-01-13T04:59:32.809Z,7.53
2023-01-13T05:02:01.920Z,9.43
2023-01-13T05:04:28.794Z,7.78
2023-01-13T05:06:56.975Z,8.23
2023-01-13T05:09:24.923Z,8.18
2023-01-13T05:12:10.319Z,8.57
2023-01-13T05:14:55.717Z,8.75
2023-01-13T05:17:25.354Z,6.50
2023-01-13T05:19:52.223Z,11.30
2023-01-13T05:22:37.573Z,6.50
2023-01-13T05:25:22.855Z,9.02
2023-01-13T05:27:50.537Z,7.43
2023-01-13T05:30:18.149Z,7.55
2023-01-13T05:32:44.897Z,7.97
2023-01-13T05:35:11.858Z,7.55
2023-01-13T05:37:39.441Z,5.85
2023-01-13T05:40:25.836Z,11.68
2023-01-13T05:43:25.274Z,5.90
2023-01-13T05:45:59.266Z,3.85
2023-01-13T05:48:38.520Z,5.55
2023-01-13T05:51:07.239Z,4.63
2023-01-13T05:53:35.672Z,6.32
2023-01-13T05:56:07.530Z,5.85
2023-01-13T05:58:34.795Z,7.65
2023-01-13T06:01:07.249Z,7.45
2023-01-13T06:03:34.385Z,6.00
2023-01-13T06:06:02.252Z,7.80
2023-01-13T06:08:29.624Z,8.20
2023-01-13T06:10:56.790Z,12.38
2023-01-13T06:13:25.190Z,13.35
2023-01-13T06:15:52.073Z,11.27
2023-01-13T06:18:18.912Z,8.57
2023-01-13T06:20:47.424Z,8.02
2023-01-13T06:23:14.694Z,7.70
2023-01-13T06:25:46.394Z,10.00
2023-01-13T06:28:13.153Z,10.82
2023-01-13T06:30:44.328Z,12.38
2023-01-13T06:33:15.033Z,7.80
2023-01-13T06:35:45.613Z,11.13
2023-01-13T06:38:16.697Z,7.65
2023-01-13T06:40:44.053Z,11.13
2023-01-13T06:43:17.729Z,10.57
2023-01-13T06:45:56.585Z,10.55
2023-01-13T06:48:27.958Z,8.07
2023-01-13T06:50:54.899Z,15.18
2023-01-13T06:53:21.643Z,10.05
2023-01-13T06:55:48.718Z,11.38
2023-01-13T06:58:15.562Z,12.73
2023-01-13T07:00:42.467Z,10.02
2023-01-13T07:03:12.003Z,11.73
2023-01-13T07:05:39.761Z,12.07
2023-01-13T07:08:07.215Z,8.63
2023-01-13T07:10:34.263Z,7.90
2023-01-13T07:13:20.847Z,10.02
2023-01-13T07:16:02.851Z,15.20
2023-01-13T07:18:34.442Z,12.90
2023-01-13T07:21:03.932Z,11.90
2023-01-13T07:23:33.690Z,10.68
2023-01-13T07:26:01.167Z,13.10
2023-01-13T07:28:29.963Z,16.15
2023-01-13T07:30:57.602Z,10.30
2023-01-13T07:33:24.819Z,11.27
2023-01-13T07:36:00.858Z,12.77
2023-01-13T07:38:28.292Z,9.60
2023-01-13T07:40:55.113Z,12.98
2023-01-13T07:43:34.403Z,11.70
2023-01-13T07:46:04.881Z,9.57
2023-01-13T07:48:35.403Z,13.10
2023-01-13T07:51:07.706Z,10.13
2023-01-13T07:53:35.226Z,8.32
2023-01-13T07:56:03.298Z,8.73
2023-01-13T07:58:30.706Z,7.13
2023-01-13T08:00:58.798Z,12.52
2023-01-13T08:03:26.938Z,14.75
2023-01-13T08:05:53.665Z,8.77
2023-01-13T08:08:21.604Z,9.95
2023-01-13T08:10:48.355Z,18.55
2023-01-13T08:13:17.555Z,14.82
2023-01-13T08:15:51.410Z,10.73
2023-01-13T08:18:21.388Z,10.48
2023-01-13T08:20:49.357Z,11.85
2023-01-13T08:23:17.218Z,11.55
2023-01-13T08:25:45.445Z,11.75
2023-01-13T08:28:13.296Z,12.63
2023-01-13T08:30:40.046Z,13.68
2023-01-13T08:33:08.705Z,15.68
2023-01-13T08:35:40.067Z,14.48
2023-01-13T08:38:08.199Z,12.77
2023-01-13T08:40:35.313Z,12.90
2023-01-13T08:43:02.229Z,12.80
2023-01-13T08:45:29.004Z,17.13
2023-01-13T08:47:55.790Z,11.55
2023-01-13T08:50:22.627Z,8.23
2023-01-13T08:52:49.498Z,12.05
2023-01-13T08:55:16.370Z,10.10
2023-01-13T08:57:43.213Z,9.73
2023-01-13T09:00:10.743Z,10.35
2023-01-13T09:02:38.562Z,11.98
2023-01-13T09:05:07.520Z,11.00
2023-01-13T09:07:36.358Z,10.38
2023-01-13T09:10:05.577Z,12.07
2023-01-13T09:12:51.052Z,9.30
2023-01-13T09:15:18.546Z,11.73
2023-01-13T09:17:45.677Z,6.80
2023-01-13T09:20:13.083Z,10.35
2023-01-13T09:22:40.652Z,7.60
2023-01-13T09:25:08.385Z,9.43
2023-01-13T09:27:35.224Z,10.70
2023-01-13T09:30:01.987Z,12.68
2023-01-13T09:32:28.659Z,8.25
2023-01-13T09:35:01.899Z,9.43
2023-01-13T09:37:34.681Z,10.50
2023-01-13T09:40:04.292Z,11.35
2023-01-13T09:43:08.051Z,12.52
2023-01-13T09:45:44.670Z,9.48
2023-01-13T09:48:18.452Z,12.30
2023-01-13T09:50:56.421Z,12.82
2023-01-13T09:53:34.092Z,8.63
2023-01-13T09:56:01.173Z,8.70
2023-01-13T09:58:27.922Z,10.40
2023-01-13T10:01:16.027Z,11.20
2023-01-13T10:03:42.981Z,8.88
2023-01-13T10:06:17.939Z,10.80
2023-01-13T10:08:47.584Z,8.50
2023-01-13T10:11:42.225Z,16.20
2023-01-13T10:14:22.456Z,12.98
2023-01-13T10:17:15.380Z,14.30
2023-01-13T10:19:55.735Z,11.82
2023-01-13T10:22:44.198Z,9.05
2023-01-13T10:25:36.226Z,14.35
2023-01-13T10:28:10.512Z,9.07
2023-01-13T10:30:40.629Z,14.27
2023-01-13T10:33:12.333Z,8.20
2023-01-13T10:35:56.408Z,13.07
2023-01-13T10:38:35.707Z,13.90
2023-01-13T10:41:18.083Z,12.15
2023-01-13T10:43:46.712Z,11.23
2023-01-13T10:46:18.717Z,14.38
2023-01-13T10:48:56.845Z,12.98
2023-01-13T10:53:53.652Z,14.43
2023-01-13T10:56:23.627Z,13.48
2023-01-13T10:58:50.402Z,11.05
2023-01-13T11:01:26.505Z,14.15
2023-01-13T11:03:57.078Z,13.13
2023-01-13T11:06:29.387Z,9.95
2023-01-13T11:09:03.139Z,13.27
2023-01-13T11:11:39.354Z,9.30
2023-01-13T11:14:42.897Z,12.52
2023-01-13T11:17:27.778Z,12.75
2023-01-13T11:20:03.206Z,16.38
2023-01-13T11:22:35.594Z,9.45
2023-01-13T11:25:05.163Z,13.48
2023-01-13T11:27:40.399Z,9.25
2023-01-13T11:30:26.050Z,9.57
2023-01-13T11:33:13.351Z,9.15
2023-01-13T11:36:10.788Z,10.05
2023-01-13T11:38:55.672Z,6.72
2023-01-13T11:41:22.454Z,12.02
2023-01-13T11:44:03.707Z,12.25
2023-01-13T11:46:32.677Z,11.85
2023-01-13T11:49:00.179Z,11.65
2023-01-13T11:51:37.102Z,11.45
2023-01-13T11:54:09.868Z,14.80
2023-01-13T11:57:38.657Z,10.80
2023-01-13T12:00:17.665Z,10.07
2023-01-13T12:03:07.757Z,10.80
2023-01-13T12:06:03.105Z,9.15
2023-01-13T12:08:58.768Z,10.93
2023-01-13T12:11:58.653Z,8.45
2023-01-13T12:14:53.036Z,10.77
2023-01-13T12:17:34.508Z,8.60
2023-01-13T12:20:18.841Z,12.27
2023-01-13T12:25:24.342Z,9.10
2023-01-13T12:28:02.267Z,11.10
2023-01-13T12:30:37.161Z,9.00
2023-01-13T12:33:32.043Z,9.38
2023-01-13T12:36:11.875Z,7.00
2023-01-13T12:38:49.139Z,9.90
2023-01-13T12:41:30.760Z,10.20
2023-01-13T12:44:16.559Z,8.00
2023-01-13T12:46:46.772Z,6.35
2023-01-13T12:49:40.126Z,8.68
2023-01-13T12:52:08.133Z,7.90
2023-01-13T12:54:37.736Z,5.13
2023-01-13T12:57:17.003Z,10.30
2023-01-13T12:59:49.175Z,7.20
2023-01-13T13:02:17.171Z,6.93
2023-01-13T13:04:49.645Z,11.20
2023-01-13T13:07:42.842Z,8.00
2023-01-13T13:10:28.723Z,6.55
2023-01-13T13:13:20.545Z,10.70
2023-01-13T13:15:52.275Z,4.55
2023-01-13T13:20:57.406Z,7.60
2023-01-13T13:23:33.398Z,9.65
2023-01-13T13:26:20.126Z,9.23
2023-01-13T13:29:11.905Z,6.65
2023-01-13T13:31:44.651Z,5.72
2023-01-13T13:34:47.909Z,8.85
2023-01-13T13:40:27.842Z,4.78
2023-01-13T13:43:17.325Z,7.43
2023-01-13T13:46:10.291Z,8.15
2023-01-13T13:48:37.356Z,6.13
2023-01-13T13:51:25.038Z,5.25
2023-01-13T13:53:52.686Z,10.20
2023-01-13T13:56:24.294Z,6.75
2023-01-13T13:58:52.275Z,10.43
2023-01-13T14:01:28.502Z,5.13
2023-01-13T14:04:28.758Z,10.95
2023-01-13T14:07:14.306Z,5.55
2023-01-13T14:09:44.720Z,6.57
2023-01-13T14:12:24.181Z,6.20
2023-01-13T14:14:52.253Z,7.40
2023-01-13T14:17:23.624Z,8.57
2023-01-13T14:20:16.567Z,4.68
2023-01-13T14:22:48.247Z,5.32
2023-01-13T14:25:39.486Z,11.90
2023-01-13T14:28:28.299Z,6.03
2023-01-13T14:30:56.630Z,5.95
2023-01-13T14:33:34.998Z,6.00
2023-01-13T14:36:11.773Z,5.13
2023-01-13T14:38:38.579Z,8.25
2023-01-13T14:41:18.043Z,7.20
2023-01-13T14:43:46.658Z,10.77
2023-01-13T14:46:14.071Z,4.85
2023-01-13T14:48:47.062Z,8.45
2023-01-13T14:51:22.664Z,6.30
2023-01-13T14:53:50.897Z,6.68
2023-01-13T14:56:36.509Z,7.55
2023-01-13T14:59:45.250Z,8.93
2023-01-13T15:02:30.563Z,6.35
2023-01-13T15:05:22.497Z,8.15
2023-01-13T15:08:17.104Z,9.52
2023-01-13T15:11:02.696Z,8.05
2023-01-13T15:13:29.417Z,7.28
2023-01-13T15:16:00.408Z,4.13
2023-01-13T15:18:27.672Z,7.97
2023-01-13T15:20:54.640Z,8.10
2023-01-13T15:23:21.893Z,7.82
2023-01-13T15:25:49.082Z,11.98
2023-01-13T15:28:21.992Z,6.28
2023-01-13T15:30:50.611Z,8.48
2023-01-13T15:33:17.816Z,5.03
2023-01-13T15:35:50.821Z,9.88
2023-01-13T15:38:20.612Z,4.97
2023-01-13T15:40:48.839Z,11.57
2023-01-13T15:43:36.328Z,5.45
2023-01-13T15:46:27.291Z,6.35
2023-01-13T15:48:55.004Z,8.48
2023-01-13T15:51:21.831Z,4.38
2023-01-13T15:53:48.760Z,5.70
2023-01-13T15:56:24.558Z,7.68
2023-01-13T15:58:51.336Z,6.57
2023-01-13T16:01:18.237Z,8.50
2023-01-13T16:03:45.095Z,9.10
2023-01-13T16:06:27.914Z,7.03
2023-01-13T16:08:54.705Z,8.57
2023-01-13T16:11:21.351Z,5.40
2023-01-13T16:13:48.488Z,7.10
2023-01-13T16:16:21.852Z,9.88
2023-01-13T16:18:49.798Z,9.32
2023-01-13T16:21:19.440Z,8.23
2023-01-13T16:23:50.586Z,8.52
2023-01-13T16:26:21.984Z,9.15
2023-01-13T16:28:50.026Z,7.20
2023-01-13T16:31:27.915Z,10.70
2023-01-13T16:33:56.529Z,6.70
2023-01-13T16:36:23.649Z,3.75
2023-01-13T16:38:52.914Z,5.85
2023-01-13T16:41:20.986Z,7.50
2023-01-13T16:43:48.611Z,9.45
2023-01-13T16:46:21.793Z,8.93
2023-01-13T16:48:50.018Z,5.75
2023-01-13T16:51:16.763Z,9.32
2023-01-13T16:53:43.815Z,8.57
2023-01-13T16:56:29.604Z,8.63
2023-01-13T16:58:58.479Z,10.10
2023-01-13T17:01:28.817Z,8.50
2023-01-13T17:03:56.889Z,8.07
2023-01-13T17:06:37.103Z,4.35
2023-01-13T17:09:14.647Z,6.28
2023-01-13T17:11:41.506Z,5.88
2023-01-13T17:14:18.381Z,6.93
2023-01-13T17:16:46.725Z,5.50
2023-01-13T17:19:13.582Z,8.00
2023-01-13T17:21:40.929Z,8.25
2023-01-13T17:24:09.623Z,6.78
2023-01-13T17:26:42.149Z,11.93
2023-01-13T17:29:13.436Z,5.85
2023-01-13T17:31:40.340Z,9.57
2023-01-13T17:34:07.324Z,5.90
2023-01-13T17:36:35.127Z,7.15
2023-01-13T17:39:01.840Z,6.80
2023-01-13T17:41:28.794Z,8.00
2023-01-13T17:43:55.584Z,7.28
2023-01-13T17:46:23.190Z,4.82
2023-01-13T17:48:53.495Z,9.95
2023-01-13T17:51:22.540Z,8.73
2023-01-13T17:53:49.577Z,5.78
2023-01-13T17:56:17.088Z,3.72
2023-01-13T17:58:46.737Z,7.72
2023-01-13T18:01:19.025Z,7.28
2023-01-13T18:03:45.813Z,6.57
2023-01-13T18:06:21.526Z,6.15
2023-01-13T18:08:49.487Z,5.90
2023-01-13T18:11:21.804Z,4.30
2023-01-13T18:13:50.198Z,3.72
2023-01-13T18:16:19.607Z,5.68
2023-01-13T18:18:49.064Z,1.85
2023-01-13T18:21:46.441Z,3.47
2023-01-13T18:24:34.055Z,1.33
2023-01-13T18:27:21.295Z,2.83
2023-01-13T18:29:52.885Z,2.78
2023-01-13T18:32:21.211Z,4.53
2023-01-13T18:34:48.982Z,2.92
2023-01-13T18:37:17.019Z,3.95
2023-01-13T18:39:43.903Z,4.28
2023-01-13T18:42:29.741Z,4.38
2023-01-13T18:44:57.747Z,4.38
2023-01-13T18:47:26.171Z,5.88
2023-01-13T18:49:52.862Z,5.53
2023-01-13T18:52:19.701Z,8.45
2023-01-13T18:54:47.455Z,3.85
2023-01-13T18:57:15.433Z,4.57
2023-01-13T18:59:42.394Z,7.60
2023-01-13T19:02:17.644Z,4.50
2023-01-13T19:04:47.591Z,6.70
2023-01-13T19:07:22.216Z,7.20
2023-01-13T19:09:52.626Z,5.18
2023-01-13T19:12:31.117Z,4.80
2023-01-13T19:14:58.834Z,8.90
2023-01-13T19:17:27.411Z,7.90
2023-01-13T19:19:56.127Z,14.23
2023-01-13T19:22:32.663Z,3.83
2023-01-13T19:25:00.730Z,5.55
2023-01-13T19:27:27.659Z,5.40
2023-01-13T19:29:58.242Z,8.68
2023-01-13T19:32:25.641Z,6.43
2023-01-13T19:34:54.982Z,5.28
2023-01-13T19:37:21.932Z,5.93
2023-01-13T19:39:48.637Z,5.00
2023-01-13T19:42:33.820Z,6.32
2023-01-13T19:45:19.224Z,6.45
2023-01-13T19:47:46.355Z,7.25
2023-01-13T19:50:16.352Z,8.15
2023-01-13T19:52:43.700Z,6.22
2023-01-13T19:55:12.445Z,10.18
2023-01-13T19:57:43.433Z,5.57
2023-01-13T20:00:12.526Z,8.85
2023-01-13T20:02:44.851Z,7.00
2023-01-13T20:05:12.784Z,7.53
2023-01-13T20:07:39.903Z,4.80
2023-01-13T20:10:07.335Z,6.82
2023-01-13T20:12:34.125Z,5.82
2023-01-13T20:15:00.869Z,3.88
2023-01-13T20:17:27.666Z,4.18
2023-01-13T20:19:54.555Z,4.72
2023-01-13T20:22:21.264Z,4.50
2023-01-13T20:24:51.982Z,4.95
2023-01-13T20:27:19.008Z,4.07
2023-01-13T20:29:46.761Z,3.35
2023-01-13T20:32:13.517Z,7.97
2023-01-13T20:34:40.342Z,7.43
2023-01-13T20:37:07.151Z,6.30
2023-01-13T20:39:35.839Z,5.63
2023-01-13T20:42:21.601Z,5.78
2023-01-13T20:44:48.319Z,4.75
2023-01-13T20:47:16.467Z,4.70
2023-01-13T20:49:43.165Z,3.80
2023-01-13T20:52:10.586Z,2.13
2023-01-13T20:54:38.730Z,3.90
2023-01-13T20:57:07.772Z,5.05
2023-01-13T20:59:34.610Z,4.15
2023-01-13T21:02:01.782Z,2.13
2023-01-13T21:04:28.936Z,2.25
2023-01-13T21:06:56.518Z,4.00
2023-01-13T21:09:24.245Z,5.68
2023-01-13T21:12:10.078Z,2.85
2023-01-13T21:14:57.407Z,5.88
2023-01-13T21:17:42.871Z,6.78
2023-01-13T21:20:11.917Z,4.00
2023-01-13T21:22:39.049Z,4.40
2023-01-13T21:25:06.698Z,3.05
2023-01-13T21:27:34.432Z,4.15
2023-01-13T21:30:01.122Z,4.40
2023-01-13T21:32:27.869Z,4.60
2023-01-13T21:34:54.547Z,7.68
2023-01-13T21:37:22.084Z,3.08
2023-01-13T21:39:49.308Z,5.55
2023-01-13T21:42:36.364Z,7.53
2023-01-13T21:45:22.660Z,3.75
2023-01-13T21:47:49.936Z,4.00
2023-01-13T21:50:19.670Z,7.30
2023-01-13T21:52:48.138Z,7.40
2023-01-13T21:55:29.218Z,3.75
2023-01-13T21:58:14.156Z,5.43
2023-01-13T22:00:43.527Z,3.60
2023-01-13T22:03:12.626Z,7.35
2023-01-13T22:05:39.971Z,4.35
2023-01-13T22:08:07.509Z,7.57
2023-01-13T22:10:34.717Z,4.28
2023-01-13T22:13:23.241Z,5.15
2023-01-13T22:15:50.116Z,4.82
2023-01-13T22:18:18.527Z,5.63
2023-01-13T22:20:45.731Z,7.82
2023-01-13T22:23:12.516Z,4.47
2023-01-13T22:25:39.333Z,5.53
2023-01-13T22:28:08.693Z,7.25
2023-01-13T22:30:35.325Z,9.07
2023-01-13T22:33:02.365Z,6.35
2023-01-13T22:35:29.196Z,6.90
2023-01-13T22:37:55.931Z,7.20
2023-01-13T22:40:22.981Z,7.57
2023-01-13T22:42:49.890Z,6.03
2023-01-13T22:45:16.891Z,9.88
2023-01-13T22:47:43.804Z,11.45
2023-01-13T22:50:12.655Z,9.15
2023-01-13T22:52:39.754Z,6.65
2023-01-13T22:55:07.204Z,7.57
2023-01-13T22:57:46.689Z,6.43
2023-01-13T23:00:17.379Z,5.82
2023-01-13T23:02:44.254Z,7.50
2023-01-13T23:05:13.749Z,6.43
2023-01-13T23:07:40.511Z,6.68
2023-01-13T23:10:07.574Z,5.28
2023-01-13T23:12:34.330Z,9.88
2023-01-13T23:15:01.275Z,6.88
2023-01-13T23:17:27.939Z,7.43
2023-01-13T23:19:54.714Z,8.68
2023-01-13T23:22:21.564Z,5.90
2023-01-13T23:24:49.021Z,6.50
2023-01-13T23:27:15.714Z,7.70
2023-01-13T23:29:42.418Z,4.60
2023-01-13T23:32:09.241Z,7.35
2023-01-13T23:34:35.986Z,6.25
2023-01-13T23:37:02.727Z,7.80
2023-01-13T23:39:29.676Z,6.07
2023-01-13T23:41:57.053Z,9.32
2023-01-13T23:44:24.160Z,8.50
2023-01-13T23:46:50.841Z,5.78
2023-01-13T23:49:17.740Z,4.68
2023-01-13T23:51:44.471Z,4.95
2023-01-13T23:54:12.393Z,9.45
2023-01-13T23:56:39.972Z,7.63
2023-01-13T23:59:07.252Z,9.07
